Time;durP1;ratioP1;P1;durP2;ratioP2;P2;SDS_P1;SDS_P2;PMS_P1;PMS_P2;Temp;Humidity;BMP_temperature;BMP_pressure;BME280_temperature;BME280_humidity;BME280_pressure;Samples;Min_cycle;Max_cycle;Signal;HPM_P1;HPM_P2
2022/04/11 00:02:33;;;;;;;3.58;2.22;;;2.10;99.90;;;;;;2115657;67;20679;-76
2022/04/11 00:05:15;;;;;;;4.85;2.00;;;2.10;99.90;;;;;;2115648;67;20174;-74
2022/04/11 00:07:57;;;;;;;5.85;2.15;;;2.00;99.90;;;;;;2113419;67;20926;-75
2022/04/11 00:10:39;;;;;;;4.28;1.60;;;2.00;99.90;;;;;;2103117;68;20341;-75
2022/04/11 00:13:21;;;;;;;6.47;2.47;;;2.00;99.90;;;;;;2105766;67;20828;-74
2022/04/11 00:16:05;;;;;;;3.60;2.30;;;2.00;99.90;;;;;;2124545;67;20196;-75
2022/04/11 00:18:48;;;;;;;;;;;2.00;99.90;;;;;;2114609;67;20326;-75
2022/04/11 00:21:30;;;;;;;3.92;2.20;;;2.00;99.90;;;;;;2110911;67;20130;-75
2022/04/11 00:24:12;;;;;;;5.78;1.90;;;2.00;99.90;;;;;;2102839;67;20436;-75
2022/04/11 00:26:56;;;;;;;3.53;2.13;;;2.00;99.90;;;;;;2110446;67;20300;-76
2022/04/11 00:29:42;;;;;;;3.88;1.90;;;1.90;99.90;;;;;;2125033;67;20351;-75
2022/04/11 00:32:24;;;;;;;5.40;1.92;;;1.90;99.90;;;;;;2123955;67;20377;-75
2022/04/11 00:35:08;;;;;;;3.15;1.88;;;1.90;99.90;;;;;;2112919;67;20220;-74
2022/04/11 00:37:50;;;;;;;4.60;2.25;;;1.90;99.90;;;;;;2110698;67;20382;-75
2022/04/11 00:40:35;;;;;;;4.47;1.98;;;2.00;99.90;;;;;;2116109;67;20908;-75
2022/04/11 00:43:35;;;;;;;5.13;2.05;;;1.80;99.90;;;;;;2120904;67;20682;-75
2022/04/11 00:46:18;;;;;;;4.72;2.03;;;1.80;99.90;;;;;;2116703;67;20686;-75
2022/04/11 00:49:02;;;;;;;5.78;2.42;;;1.80;99.90;;;;;;2111838;67;20177;-75
2022/04/11 00:51:45;;;;;;;3.78;2.40;;;1.80;99.90;;;;;;2117560;67;20309;-75
2022/04/11 00:54:31;;;;;;;5.45;2.20;;;2.40;99.90;;;;;;2120672;67;20731;-75
2022/04/11 00:57:15;;;;;;;3.78;2.22;;;1.80;99.90;;;;;;2105526;67;20301;-76
2022/04/11 00:59:59;;;;;;;3.28;2.35;;;1.80;99.90;;;;;;2100454;68;20407;-75
2022/04/11 01:02:41;;;;;;;3.35;2.10;;;1.80;99.90;;;;;;2104440;68;20186;-74
2022/04/11 01:05:23;;;;;;;3.58;2.17;;;1.80;99.90;;;;;;2103558;67;20215;-76
2022/04/11 01:08:12;;;;;;;4.82;2.28;;;1.40;99.90;;;;;;2093247;68;20600;-75
2022/04/11 01:10:57;;;;;;;4.20;2.33;;;1.70;99.90;;;;;;2084223;68;20223;-75
2022/04/11 01:13:41;;;;;;;4.07;2.17;;;1.70;99.90;;;;;;2102276;68;20212;-75
2022/04/11 01:16:28;;;;;;;4.95;2.25;;;1.70;99.90;;;;;;2083145;68;20231;-76
2022/04/11 01:19:11;;;;;;;4.90;2.30;;;1.70;99.90;;;;;;2077921;68;20703;-76
2022/04/11 01:21:56;;;;;;;5.32;2.00;;;1.60;99.90;;;;;;2090702;68;20929;-75
2022/04/11 01:24:41;;;;;;;6.13;2.05;;;2.30;99.90;;;;;;2083337;68;20177;-75
2022/04/11 01:27:25;;;;;;;4.82;1.98;;;1.70;99.90;;;;;;2076671;69;20210;-75
2022/04/11 01:30:11;;;;;;;4.43;2.03;;;1.60;99.90;;;;;;2065890;69;20732;-75
2022/04/11 01:32:53;;;;;;;2.67;1.85;;;1.70;99.90;;;;;;2075797;69;20343;-75
2022/04/11 01:35:36;;;;;;;5.80;2.70;;;1.60;99.90;;;;;;2083725;68;20350;-75
2022/04/11 01:38:19;;;;;;;5.75;2.13;;;1.70;99.90;;;;;;2085042;68;20175;-75
2022/04/11 01:41:02;;;;;;;4.38;2.28;;;1.70;99.90;;;;;;2094345;68;20599;-75
2022/04/11 01:43:47;;;;;;;3.50;2.13;;;1.70;99.90;;;;;;2084999;68;20360;-74
2022/04/11 01:46:29;;;;;;;5.32;3.03;;;1.70;99.90;;;;;;2089640;68;20168;-75
2022/04/11 01:49:11;;;;;;;5.72;2.50;;;1.70;99.90;;;;;;2104784;67;20186;-75
2022/04/11 01:51:53;;;;;;;4.50;2.20;;;1.70;99.90;;;;;;2117143;67;20411;-74
2022/04/11 01:54:35;;;;;;;6.97;3.35;;;1.80;99.90;;;;;;2111169;67;20661;-75
2022/04/11 01:57:16;;;;;;;4.55;2.13;;;1.70;99.90;;;;;;2125406;67;20710;-76
2022/04/11 02:00:02;;;;;;;3.65;2.42;;;1.70;99.90;;;;;;2111246;67;20374;-75
2022/04/11 02:02:47;;;;;;;5.25;2.53;;;1.60;99.90;;;;;;2109003;67;20185;-76
2022/04/11 02:05:30;;;;;;;3.75;2.30;;;1.70;99.90;;;;;;2117551;67;20662;-75
2022/04/11 02:08:15;;;;;;;;;;;1.70;99.90;;;;;;2118342;67;20188;-75
2022/04/11 02:10:58;;;;;;;3.08;2.08;;;1.60;99.90;;;;;;2114474;67;20245;-76
2022/04/11 02:13:41;;;;;;;5.75;2.50;;;1.60;99.90;;;;;;2113770;67;20662;-76
2022/04/11 02:16:23;;;;;;;7.40;2.60;;;1.60;99.90;;;;;;2112431;67;20302;-75
2022/04/11 02:19:06;;;;;;;4.03;2.70;;;1.60;99.90;;;;;;2103913;68;20253;-75
2022/04/11 02:21:47;;;;;;;6.50;3.10;;;1.60;99.90;;;;;;2104778;68;20234;-76
2022/04/11 02:24:30;;;;;;;5.82;2.78;;;1.60;99.90;;;;;;2095394;68;20301;-74
2022/04/11 02:27:12;;;;;;;4.15;2.47;;;1.60;99.90;;;;;;2096895;68;20328;-75
2022/04/11 02:29:55;;;;;;;4.05;2.47;;;1.60;99.90;;;;;;2083529;68;20202;-75
2022/04/11 02:32:40;;;;;;;7.32;2.80;;;1.60;99.90;;;;;;2080738;68;20192;-75
2022/04/11 02:35:22;;;;;;;4.73;3.27;;;1.50;99.90;;;;;;2077027;68;20350;-75
2022/04/11 02:38:04;;;;;;;4.88;2.70;;;1.50;99.90;;;;;;2084161;68;20544;-75
2022/04/11 02:40:46;;;;;;;7.82;2.60;;;1.50;99.90;;;;;;2098003;68;20191;-74
2022/04/11 02:43:33;;;;;;;4.07;2.83;;;1.50;99.90;;;;;;2104814;68;20250;-75
2022/04/11 02:46:16;;;;;;;;;;;1.50;99.90;;;;;;2098340;68;20204;-74
2022/04/11 02:48:59;;;;;;;5.68;2.90;;;1.50;99.90;;;;;;2098099;68;20074;-74
2022/04/11 02:51:41;;;;;;;3.65;2.50;;;1.40;99.90;;;;;;2104607;68;20201;-74
2022/04/11 02:54:23;;;;;;;5.28;2.90;;;1.40;99.90;;;;;;2099768;67;20194;-74
2022/04/11 02:57:09;;;;;;;5.05;2.70;;;1.40;99.90;;;;;;2111769;67;20330;-76
2022/04/11 02:59:54;;;;;;;5.07;2.47;;;1.40;99.90;;;;;;2106973;67;20260;-75
2022/04/11 03:02:36;;;;;;;8.65;3.20;;;1.40;99.90;;;;;;2111367;67;20236;-75
2022/04/11 03:05:18;;;;;;;6.25;2.70;;;1.40;99.90;;;;;;2105713;67;20271;-75
2022/04/11 03:08:00;;;;;;;6.20;2.85;;;1.40;99.90;;;;;;2122928;67;20230;-74
2022/04/11 03:10:46;;;;;;;5.60;2.90;;;1.40;99.90;;;;;;2123922;67;20196;-74
2022/04/11 03:13:30;;;;;;;4.13;2.78;;;1.40;99.90;;;;;;2125946;67;20297;-75
2022/04/11 03:16:13;;;;;;;3.63;2.80;;;1.40;99.90;;;;;;2125637;67;20291;-74
2022/04/11 03:18:54;;;;;;;7.32;2.88;;;1.40;99.90;;;;;;2102380;68;20732;-75
2022/04/11 03:21:39;;;;;;;4.53;2.85;;;1.40;99.90;;;;;;2098523;68;20237;-74
2022/04/11 03:24:24;;;;;;;4.45;3.28;;;1.40;99.90;;;;;;2098768;67;20345;-75
2022/04/11 03:27:07;;;;;;;4.95;2.72;;;1.50;99.90;;;;;;2118986;67;20879;-75
2022/04/11 03:29:53;;;;;;;4.15;3.15;;;1.50;99.90;;;;;;2118533;67;20322;-76
2022/04/11 03:32:38;;;;;;;7.90;2.80;;;1.60;99.90;;;;;;2118455;67;20416;-75
2022/04/11 03:35:23;;;;;;;5.38;3.33;;;1.70;99.90;;;;;;2125699;67;20348;-75
2022/04/11 03:38:09;;;;;;;7.03;3.15;;;1.80;99.90;;;;;;2130070;67;20737;-76
2022/04/11 03:40:55;;;;;;;5.25;3.60;;;1.90;99.90;;;;;;2126223;67;20289;-75
2022/04/11 03:43:40;;;;;;;7.72;3.50;;;1.90;99.90;;;;;;2121754;67;20359;-75
2022/04/11 03:46:22;;;;;;;5.53;3.00;;;2.00;99.90;;;;;;2118759;67;20349;-75
2022/04/11 03:49:06;;;;;;;5.13;3.70;;;2.10;99.90;;;;;;2103071;68;20603;-75
2022/04/11 03:51:51;;;;;;;6.20;3.10;;;2.20;99.90;;;;;;2092454;68;20230;-74
2022/04/11 03:54:35;;;;;;;5.10;3.03;;;2.60;99.90;;;;;;2099595;67;20312;-74
2022/04/11 03:57:16;;;;;;;3.78;3.08;;;3.00;99.90;;;;;;2112245;67;20511;-74
2022/04/11 03:59:58;;;;;;;7.80;3.33;;;2.40;99.90;;;;;;2117874;67;20243;-75
2022/04/11 04:02:40;;;;;;;5.65;2.97;;;2.50;99.90;;;;;;2113095;67;20270;-75
2022/04/11 04:05:22;;;;;;;7.53;3.72;;;2.50;99.90;;;;;;2133040;67;20222;-75
2022/04/11 04:08:05;;;;;;;5.47;3.17;;;2.60;99.90;;;;;;2132399;67;20396;-75
2022/04/11 04:10:48;;;;;;;5.13;2.90;;;2.70;99.90;;;;;;2134228;66;20190;-75
2022/04/11 04:13:34;;;;;;;3.92;2.80;;;2.70;99.90;;;;;;2139026;67;20277;-75
2022/04/11 04:16:15;;;;;;;4.47;2.95;;;2.80;99.90;;;;;;2142921;66;20218;-75
2022/04/11 04:19:01;;;;;;;5.72;2.92;;;2.80;99.90;;;;;;2150453;66;20768;-75
2022/04/11 04:21:45;;;;;;;6.53;3.22;;;2.90;99.90;;;;;;2146779;66;20189;-75
2022/04/11 04:24:34;;;;;;;8.75;3.13;;;3.00;99.90;;;;;;2164110;66;20241;-76
2022/04/11 04:27:20;;;;;;;5.85;3.05;;;3.00;99.90;;;;;;2158934;66;20249;-74
2022/04/11 04:30:08;;;;;;;5.45;3.15;;;3.00;99.90;;;;;;2146618;66;20178;-74
2022/04/11 04:32:53;;;;;;;7.03;3.38;;;3.10;99.90;;;;;;2146094;66;20217;-76
2022/04/11 04:35:36;;;;;;;4.13;2.70;;;3.10;99.90;;;;;;2157349;66;20203;-76
2022/04/11 04:38:21;;;;;;;4.15;3.15;;;3.10;99.90;;;;;;2148082;66;20187;-75
2022/04/11 04:41:04;;;;;;;5.72;3.00;;;3.20;99.90;;;;;;2127588;67;20179;-75
2022/04/11 04:43:51;;;;;;;5.35;3.58;;;3.20;99.90;;;;;;2123820;67;20247;-75
2022/04/11 04:46:34;;;;;;;5.70;4.00;;;3.20;99.90;;;;;;2126540;67;20183;-75
2022/04/11 04:49:18;;;;;;;6.72;4.22;;;3.20;99.90;;;;;;2122749;67;20172;-75
2022/04/11 04:52:02;;;;;;;8.03;3.90;;;3.30;99.90;;;;;;2121148;67;20292;-75
2022/04/11 04:54:44;;;;;;;6.57;4.05;;;3.30;99.90;;;;;;2137911;67;20466;-75
2022/04/11 04:57:26;;;;;;;4.53;3.28;;;3.30;99.90;;;;;;2134099;67;20203;-75
2022/04/11 05:00:09;;;;;;;9.68;4.82;;;3.40;99.90;;;;;;2128870;67;20383;-75
2022/04/11 05:02:51;;;;;;;5.75;3.63;;;3.40;99.90;;;;;;2124744;67;20180;-75
2022/04/11 05:05:33;;;;;;;6.05;3.70;;;3.70;99.90;;;;;;2126735;67;20354;-75
2022/04/11 05:08:15;;;;;;;8.77;3.67;;;3.50;99.90;;;;;;2129567;67;20245;-75
2022/04/11 05:10:57;;;;;;;9.65;4.28;;;3.50;99.90;;;;;;2130701;67;20180;-75
2022/04/11 05:13:40;;;;;;;7.80;3.53;;;3.60;99.90;;;;;;2119091;67;20172;-74
2022/04/11 05:16:26;;;;;;;8.50;3.83;;;3.60;99.90;;;;;;2111279;67;20189;-75
2022/04/11 05:19:10;;;;;;;5.70;3.85;;;3.70;99.90;;;;;;2120865;67;20324;-75
2022/04/11 05:21:52;;;;;;;5.53;3.38;;;3.80;99.90;;;;;;2112606;67;20216;-75
2022/04/11 05:24:35;;;;;;;6.28;3.53;;;3.80;99.90;;;;;;2130609;67;20193;-75
2022/04/11 05:27:20;;;;;;;6.57;3.67;;;3.90;99.90;;;;;;2129046;67;20724;-74
2022/04/11 05:30:05;;;;;;;5.60;3.45;;;4.00;99.90;;;;;;2131369;66;20200;-74
2022/04/11 05:32:50;;;;;;;6.28;3.53;;;4.00;99.90;;;;;;2149092;66;20198;-75
2022/04/11 05:35:34;;;;;;;8.57;3.28;;;4.10;99.90;;;;;;2138218;66;20326;-74
2022/04/11 05:38:20;;;;;;;7.53;3.55;;;4.10;99.90;;;;;;2123112;67;20715;-75
2022/04/11 05:41:02;;;;;;;8.30;4.32;;;4.20;99.90;;;;;;2126477;67;20264;-76
2022/04/11 05:43:44;;;;;;;5.78;2.97;;;4.20;99.90;;;;;;2132119;67;20187;-76
2022/04/11 05:46:28;;;;;;;8.15;3.95;;;4.30;99.90;;;;;;2118039;67;20172;-76
2022/04/11 05:49:12;;;;;;;;;;;4.30;99.90;;;;;;2124268;67;20240;-76
2022/04/11 05:51:54;;;;;;;8.38;3.58;;;4.40;99.90;;;;;;2117102;67;20088;-76
2022/04/11 05:54:38;;;;;;;8.40;3.15;;;4.40;99.90;;;;;;2108564;67;20182;-79
2022/04/11 05:57:21;;;;;;;6.93;3.38;;;4.50;99.90;;;;;;2103931;68;20223;-79
2022/04/11 06:00:07;;;;;;;7.53;3.70;;;4.50;99.90;;;;;;2103566;68;20360;-81
2022/04/11 06:02:50;;;;;;;;;;;4.60;99.90;;;;;;2111056;67;20199;-79
2022/04/11 06:05:39;;;;;;;6.40;3.20;;;4.60;99.90;;;;;;2107504;67;20144;-78
2022/04/11 06:08:20;;;;;;;;;;;4.70;99.90;;;;;;2111641;67;20202;-76
2022/04/11 06:11:03;;;;;;;7.18;3.55;;;4.70;99.90;;;;;;2102589;68;20956;-75
2022/04/11 06:13:46;;;;;;;5.40;3.40;;;4.80;99.90;;;;;;2097100;68;20206;-76
2022/04/11 06:16:30;;;;;;;5.80;3.75;;;4.80;99.90;;;;;;2105010;68;20744;-74
2022/04/11 06:19:15;;;;;;;8.40;4.32;;;4.90;99.90;;;;;;2098578;68;20323;-78
2022/04/11 06:21:57;;;;;;;8.23;4.93;;;5.00;99.90;;;;;;2084054;68;20168;-74
2022/04/11 06:24:39;;;;;;;8.25;4.68;;;5.00;99.90;;;;;;2089837;68;20261;-75
2022/04/11 06:27:23;;;;;;;9.00;6.05;;;5.10;99.90;;;;;;2098397;68;20641;-76
2022/04/11 06:30:05;;;;;;;7.60;4.88;;;5.10;99.90;;;;;;2091444;68;20271;-76
2022/04/11 06:32:47;;;;;;;7.50;4.78;;;5.20;99.90;;;;;;2090951;68;20492;-76
2022/04/11 06:35:31;;;;;;;8.82;4.47;;;5.30;99.90;;;;;;2096586;68;20237;-76
2022/04/11 06:38:16;;;;;;;;;;;5.30;99.90;;;;;;2112654;67;20276;-74
2022/04/11 06:40:57;;;;;;;6.75;3.75;;;5.40;99.90;;;;;;2105556;67;20238;-76
2022/04/11 06:43:43;;;;;;;9.15;4.18;;;5.50;99.90;;;;;;2097627;68;20195;-75
2022/04/11 06:46:25;;;;;;;6.30;3.95;;;5.60;99.90;;;;;;2077911;69;20169;-74
2022/04/11 06:49:13;;;;;;;5.18;3.78;;;5.70;99.90;;;;;;2078301;68;20269;-75
2022/04/11 06:51:55;;;;;;;7.93;4.78;;;5.80;99.90;;;;;;2095727;68;20603;-75
2022/04/11 06:54:38;;;;;;;7.13;4.13;;;5.90;99.90;;;;;;2112388;67;20193;-74
2022/04/11 06:57:25;;;;;;;7.72;3.80;;;6.00;99.90;;;;;;2113047;67;20248;-74
2022/04/11 07:00:10;;;;;;;6.70;3.50;;;6.10;99.90;;;;;;2119269;67;20381;-74
2022/04/11 07:02:52;;;;;;;6.32;3.70;;;6.30;99.90;;;;;;2107852;68;20197;-74
2022/04/11 07:05:39;;;;;;;6.13;4.38;;;6.40;99.90;;;;;;2099780;68;20322;-75
2022/04/11 07:08:22;;;;;;;10.40;4.63;;;6.50;99.90;;;;;;2098708;68;20208;-75
2022/04/11 07:11:04;;;;;;;8.45;3.50;;;6.60;99.90;;;;;;2087368;68;20329;-75
2022/04/11 07:13:50;;;;;;;5.85;3.70;;;6.80;99.90;;;;;;2107788;67;20174;-75
2022/04/11 07:16:31;;;;;;;10.43;3.65;;;6.90;99.90;;;;;;2121189;67;20189;-74
2022/04/11 07:19:13;;;;;;;8.18;3.67;;;7.00;99.90;;;;;;2115647;67;20177;-75
2022/04/11 07:21:56;;;;;;;8.93;4.85;;;7.10;99.90;;;;;;2120416;67;20418;-75
2022/04/11 07:24:42;;;;;;;5.30;3.30;;;7.20;99.90;;;;;;2127151;67;20280;-75
2022/04/11 07:27:25;;;;;;;8.10;3.55;;;7.40;99.90;;;;;;2119581;67;20208;-75
2022/04/11 07:30:11;;;;;;;13.25;2.95;;;7.50;99.90;;;;;;2113733;67;20406;-75
2022/04/11 07:32:54;;;;;;;8.77;2.78;;;7.50;99.90;;;;;;2113932;67;20182;-76
2022/04/11 07:35:37;;;;;;;5.65;3.67;;;7.60;99.90;;;;;;2120709;67;20196;-76
2022/04/11 07:38:19;;;;;;;7.65;3.13;;;7.70;99.90;;;;;;2141007;67;20343;-76
2022/04/11 07:41:02;;;;;;;7.18;3.33;;;7.70;99.90;;;;;;2133160;67;20163;-75
2022/04/11 07:43:48;;;;;;;7.30;2.58;;;7.80;99.90;;;;;;2118828;67;20698;-75
2022/04/11 07:46:33;;;;;;;7.63;2.70;;;7.90;99.90;;;;;;2126338;67;20230;-75
2022/04/11 07:49:16;;;;;;;4.53;2.00;;;8.00;99.90;;;;;;2126169;67;20341;-75
2022/04/11 07:52:01;;;;;;;5.63;2.95;;;8.10;99.90;;;;;;2118905;67;20221;-76
2022/04/11 07:54:44;;;;;;;5.70;2.08;;;8.30;99.90;;;;;;2118827;67;20769;-75
2022/04/11 07:57:28;;;;;;;;;;;8.30;99.90;;;;;;2121444;67;20748;-75
2022/04/11 08:00:12;;;;;;;5.60;1.60;;;8.60;99.90;;;;;;2133694;67;20063;-75
2022/04/11 08:02:58;;;;;;;2.97;1.40;;;8.50;99.90;;;;;;2125340;67;20268;-76
2022/04/11 08:05:41;;;;;;;2.85;1.10;;;8.60;99.90;;;;;;2119284;67;20275;-75
2022/04/11 08:08:26;;;;;;;;;;;8.70;99.90;;;;;;2119147;67;20717;-75
2022/04/11 08:11:13;;;;;;;2.90;1.77;;;8.70;99.90;;;;;;2125054;67;20162;-75
2022/04/11 08:13:56;;;;;;;6.63;1.77;;;8.80;99.90;;;;;;2117143;67;20259;-75
2022/04/11 08:16:44;;;;;;;4.20;1.55;;;8.80;99.90;;;;;;2131402;67;20324;-75
2022/04/11 08:19:29;;;;;;;4.85;2.00;;;8.80;99.70;;;;;;2132885;67;20794;-76
2022/04/11 08:22:11;;;;;;;6.10;2.05;;;8.90;99.30;;;;;;2118675;67;20363;-75
2022/04/11 08:24:56;;;;;;;3.78;2.15;;;9.00;99.10;;;;;;2106107;67;20189;-75
2022/04/11 08:27:41;;;;;;;5.65;2.42;;;9.10;99.00;;;;;;2116159;67;20307;-75
2022/04/11 08:30:26;;;;;;;6.97;2.53;;;9.20;99.00;;;;;;2103028;68;20422;-75
2022/04/11 08:33:10;;;;;;;6.95;2.55;;;9.40;98.60;;;;;;2104352;67;20241;-75
2022/04/11 08:35:54;;;;;;;5.32;2.80;;;9.60;97.70;;;;;;2096578;68;20380;-75
2022/04/11 08:38:38;;;;;;;4.80;2.47;;;9.60;96.90;;;;;;2095339;68;20466;-74
2022/04/11 08:41:27;;;;;;;6.85;3.35;;;9.70;96.50;;;;;;2097992;68;20399;-75
2022/04/11 08:44:09;;;;;;;4.47;2.67;;;9.70;96.50;;;;;;2117211;67;20352;-76
2022/04/11 08:46:51;;;;;;;5.35;2.33;;;9.90;96.90;;;;;;2102957;68;20179;-74
2022/04/11 08:49:33;;;;;;;4.43;2.45;;;9.90;96.70;;;;;;2090713;68;20234;-75
2022/04/11 08:52:15;;;;;;;7.97;2.65;;;10.00;96.10;;;;;;2105620;68;20167;-76
2022/04/11 08:54:57;;;;;;;5.80;2.25;;;10.00;95.70;;;;;;2098149;68;20932;-75
2022/04/11 08:57:39;;;;;;;4.78;2.03;;;10.00;95.00;;;;;;2097636;68;20302;-74
2022/04/11 09:00:22;;;;;;;6.13;2.22;;;10.10;94.50;;;;;;2097627;67;20479;-75
2022/04/11 09:03:08;;;;;;;4.57;1.98;;;10.10;94.30;;;;;;2125962;67;20986;-74
2022/04/11 09:06:10;;;;;;;3.22;2.17;;;10.20;94.10;;;;;;2108074;67;20704;-74
2022/04/11 09:08:55;;;;;;;5.30;2.20;;;10.20;93.70;;;;;;2118024;67;20169;-75
2022/04/11 09:11:40;;;;;;;4.88;2.05;;;10.10;93.30;;;;;;2131981;67;20753;-75
2022/04/11 09:14:27;;;;;;;5.32;2.28;;;10.10;93.20;;;;;;2145426;66;20338;-74
2022/04/11 09:17:11;;;;;;;3.70;1.77;;;10.10;93.10;;;;;;2119674;67;20322;-75
2022/04/11 09:20:10;;;;;;;4.22;1.95;;;10.00;92.60;;;;;;2129698;67;20247;-75
2022/04/11 09:22:54;;;;;;;3.50;2.20;;;10.00;92.40;;;;;;2116128;67;20557;-75
2022/04/11 09:25:38;;;;;;;;;;;9.90;91.90;;;;;;2111663;67;20662;-74
2022/04/11 09:28:22;;;;;;;5.80;2.03;;;9.80;92.30;;;;;;2111133;67;20163;-74
2022/04/11 09:31:06;;;;;;;5.38;2.45;;;9.80;91.70;;;;;;2104270;67;20328;-75
2022/04/11 09:33:51;;;;;;;4.35;2.33;;;9.80;91.40;;;;;;2104164;68;20341;-74
2022/04/11 09:36:50;;;;;;;4.45;2.33;;;9.80;90.60;;;;;;2101842;68;20583;-75
2022/04/11 09:39:58;;;;;;;3.97;2.33;;;9.80;90.60;;;;;;2104021;68;20676;-74
2022/04/11 09:42:57;;;;;;;4.53;1.85;;;9.90;90.40;;;;;;2088879;68;20197;-74
2022/04/11 09:45:46;;;;;;;6.53;3.10;;;10.00;90.10;;;;;;2071536;69;20182;-74
2022/04/11 09:48:32;;;;;;;4.55;2.53;;;10.10;90.00;;;;;;2067245;69;20274;-74
2022/04/11 09:51:14;;;;;;;;;;;10.20;90.20;;;;;;2078404;68;20172;-72
2022/04/11 09:53:56;;;;;;;6.00;2.08;;;10.20;90.70;;;;;;2076521;69;20108;-74
2022/04/11 09:56:41;;;;;;;9.52;2.38;;;10.30;90.40;;;;;;2079959;68;20602;-74
2022/04/11 09:59:24;;;;;;;9.00;2.20;;;10.40;90.30;;;;;;2076488;68;20431;-73
2022/04/11 10:02:10;;;;;;;4.10;2.63;;;10.50;89.40;;;;;;2073448;68;20260;-74
2022/04/11 10:04:57;;;;;;;4.05;1.77;;;10.50;88.40;;;;;;2075363;68;20678;-74
2022/04/11 10:07:40;;;;;;;4.50;2.25;;;10.60;87.50;;;;;;2082316;68;20334;-73
2022/04/11 10:10:25;;;;;;;3.78;2.10;;;10.70;85.40;;;;;;2091116;68;20354;-74
2022/04/11 10:13:11;;;;;;;3.60;1.73;;;10.70;83.60;;;;;;2086752;68;20204;-74
2022/04/11 10:16:00;;;;;;;3.65;1.85;;;10.90;82.20;;;;;;2084325;68;20280;-74
2022/04/11 10:18:45;;;;;;;6.45;1.50;;;11.00;81.70;;;;;;2095584;68;20337;-74
2022/04/11 10:21:28;;;;;;;3.60;1.58;;;11.10;79.40;;;;;;2098600;67;20252;-74
2022/04/11 10:24:37;;;;;;;3.83;1.88;;;11.20;78.00;;;;;;2103541;67;20780;-74
2022/04/11 10:27:25;;;;;;;4.10;2.10;;;11.30;78.30;;;;;;2087657;68;20192;-75
2022/04/11 10:30:26;;;;;;;5.47;2.22;;;11.50;78.30;;;;;;2094381;68;20392;-75
2022/04/11 10:33:08;;;;;;;3.95;2.00;;;11.70;76.50;;;;;;2092864;68;20201;-75
2022/04/11 10:35:53;;;;;;;5.20;2.00;;;11.80;76.60;;;;;;2095173;68;20370;-74
2022/04/11 10:38:35;;;;;;;;;;;11.90;76.10;;;;;;2101176;68;20305;-74
2022/04/11 10:41:38;;;;;;;4.55;2.35;;;12.10;76.30;;;;;;2118204;67;20116;-74
2022/04/11 10:44:35;;;;;;;5.50;2.33;;;12.20;75.90;;;;;;2107050;67;20229;-75
2022/04/11 10:47:16;;;;;;;5.85;2.17;;;12.60;75.20;;;;;;2106058;67;20323;-76
2022/04/11 10:49:57;;;;;;;3.78;2.25;;;13.00;73.90;;;;;;2103882;68;20739;-75
2022/04/11 10:52:41;;;;;;;3.90;1.88;;;13.40;73.30;;;;;;2095608;68;20267;-74
2022/04/11 10:55:26;;;;;;;3.63;2.17;;;13.80;71.60;;;;;;2096404;68;20282;-75
2022/04/11 10:58:22;;;;;;;2.50;2.00;;;14.10;70.40;;;;;;2094355;68;20939;-74
2022/04/11 11:01:07;;;;;;;3.42;2.45;;;14.60;68.90;;;;;;2100661;68;20234;-74
2022/04/11 11:04:00;;;;;;;2.65;1.73;;;14.80;67.30;;;;;;2102448;68;20679;-73
2022/04/11 11:06:46;;;;;;;2.95;1.63;;;15.10;62.60;;;;;;2101938;68;20869;-75
2022/04/11 11:09:40;;;;;;;3.83;1.67;;;15.40;64.90;;;;;;2110960;67;20185;-75
2022/04/11 11:12:23;;;;;;;3.88;1.98;;;16.00;64.20;;;;;;2125273;67;20184;-75
2022/04/11 11:15:27;;;;;;;9.27;2.40;;;16.60;62.90;;;;;;2142960;66;20602;-75
2022/04/11 11:18:09;;;;;;;2.83;1.77;;;17.20;61.90;;;;;;2140490;66;20312;-75
2022/04/11 11:21:13;;;;;;;3.13;2.10;;;17.60;58.80;;;;;;2134578;67;20176;-76
2022/04/11 11:24:08;;;;;;;4.72;2.40;;;18.10;57.90;;;;;;2127700;67;20222;-76
2022/04/11 11:26:53;;;;;;;3.33;2.35;;;18.70;54.70;;;;;;2118792;67;20337;-76
2022/04/11 11:29:41;;;;;;;;;;;19.20;53.90;;;;;;2121813;67;20268;-75
2022/04/11 11:32:26;;;;;;;2.97;2.28;;;19.60;54.20;;;;;;2116275;67;20064;-75
2022/04/11 11:35:09;;;;;;;5.40;2.53;;;20.00;51.00;;;;;;2124996;67;20775;-75
2022/04/11 11:37:55;;;;;;;4.38;2.25;;;20.40;49.60;;;;;;2117651;67;20270;-76
2022/04/11 11:40:53;;;;;;;3.28;2.20;;;21.00;48.70;;;;;;2109034;67;20218;-76
2022/04/11 11:43:39;;;;;;;5.82;2.15;;;21.70;47.80;;;;;;2095920;68;20257;-75
2022/04/11 11:46:21;;;;;;;3.58;2.45;;;22.30;46.80;;;;;;2091597;68;20605;-74
2022/04/11 11:49:16;;;;;;;4.57;2.47;;;22.90;45.10;;;;;;2077211;69;20280;-75
2022/04/11 11:52:02;;;;;;;8.00;2.63;;;23.00;44.30;;;;;;2087325;68;20172;-74
2022/04/11 11:54:51;;;;;;;5.47;4.18;;;23.30;44.50;;;;;;2093493;68;20236;-75
2022/04/11 11:57:35;;;;;;;4.75;2.70;;;23.80;43.00;;;;;;2095713;68;20250;-77
2022/04/11 12:00:17;;;;;;;3.85;2.70;;;24.00;42.60;;;;;;2106700;67;20397;-75
2022/04/11 12:05:59;;;;;;;3.97;2.35;;;24.30;40.50;;;;;;2110210;67;20196;-76
2022/04/11 12:09:01;;;;;;;2.53;2.33;;;24.60;40.30;;;;;;2115297;67;20232;-74
2022/04/11 12:11:42;;;;;;;3.17;2.55;;;24.90;40.40;;;;;;2116836;67;20729;-75
2022/04/11 12:14:24;;;;;;;4.47;2.55;;;24.90;39.40;;;;;;2129884;67;20188;-76
2022/04/11 12:17:07;;;;;;;3.50;2.33;;;25.00;38.10;;;;;;2121589;67;20783;-75
2022/04/11 12:20:08;;;;;;;3.40;2.72;;;25.20;38.50;;;;;;2111385;67;20326;-75
2022/04/11 12:23:06;;;;;;;;;;;25.90;37.40;;;;;;2111132;67;20173;-76
2022/04/11 12:25:54;;;;;;;3.25;2.60;;;26.10;39.80;;;;;;2115364;67;20083;-75
2022/04/11 12:28:37;;;;;;;2.95;2.63;;;26.60;38.20;;;;;;2121550;67;20354;-76
2022/04/11 12:31:21;;;;;;;2.90;2.30;;;27.10;36.90;;;;;;2132250;67;20684;-76
2022/04/11 12:34:11;;;;;;;3.10;2.55;;;27.60;36.10;;;;;;2132602;67;20345;-75
2022/04/11 12:37:02;;;;;;;3.78;2.60;;;27.70;35.00;;;;;;2133933;67;20295;-76
2022/04/11 12:40:01;;;;;;;3.78;2.55;;;27.40;35.40;;;;;;2125614;67;20712;-76
2022/04/11 12:42:47;;;;;;;4.15;2.58;;;27.60;34.70;;;;;;2118374;67;20310;-77
2022/04/11 12:45:30;;;;;;;3.15;2.55;;;27.70;32.80;;;;;;2108656;67;20320;-76
2022/04/11 12:48:16;;;;;;;3.63;2.53;;;28.10;33.20;;;;;;2118694;67;20680;-76
2022/04/11 12:51:10;;;;;;;3.45;2.50;;;28.40;32.60;;;;;;2120154;67;20199;-77
2022/04/11 12:54:00;;;;;;;4.57;2.95;;;28.40;33.20;;;;;;2112374;67;20634;-75
2022/04/11 12:56:47;;;;;;;3.72;2.40;;;28.90;32.70;;;;;;2114413;67;20173;-75
2022/04/11 12:59:33;;;;;;;3.75;2.90;;;29.40;32.80;;;;;;2111307;67;20722;-75
2022/04/11 13:02:20;;;;;;;3.83;2.20;;;29.90;32.60;;;;;;2102499;67;20203;-75
2022/04/11 13:05:12;;;;;;;2.88;2.38;;;30.10;31.90;;;;;;2091165;68;20276;-76
2022/04/11 13:08:13;;;;;;;4.15;2.90;;;30.20;31.30;;;;;;2090843;68;20283;-77
2022/04/11 13:10:58;;;;;;;4.15;3.33;;;30.60;32.00;;;;;;2095459;68;20191;-76
2022/04/11 13:13:43;;;;;;;3.88;2.42;;;30.80;31.30;;;;;;2105487;67;20244;-76
2022/04/11 13:19:26;;;;;;;4.47;2.65;;;31.70;30.90;;;;;;2101359;68;20174;-78
2022/04/11 13:22:11;;;;;;;3.30;2.30;;;31.90;31.60;;;;;;2105220;67;20302;-75
2022/04/11 13:24:55;;;;;;;3.50;2.25;;;32.00;30.60;;;;;;2118597;67;20249;-76
2022/04/11 13:27:55;;;;;;;3.30;2.40;;;32.40;30.90;;;;;;2110099;67;20217;-76
2022/04/11 13:30:42;;;;;;;4.88;2.30;;;32.80;30.20;;;;;;2100596;67;20179;-77
2022/04/11 13:33:31;;;;;;;3.42;2.90;;;32.90;29.80;;;;;;2104573;67;20182;-75
2022/04/11 13:36:16;;;;;;;3.78;2.90;;;33.00;29.60;;;;;;2093456;68;20276;-77
2022/04/11 13:38:58;;;;;;;3.38;2.20;;;32.80;29.50;;;;;;2091847;68;20180;-75
2022/04/11 13:41:40;;;;;;;3.80;2.75;;;32.80;29.50;;;;;;2084932;68;20684;-78
2022/04/11 13:44:22;;;;;;;6.93;2.92;;;32.80;29.50;;;;;;2087422;68;20760;-75
2022/04/11 13:47:13;;;;;;;3.25;2.75;;;32.80;30.00;;;;;;2102525;67;20382;-79
2022/04/11 13:49:56;;;;;;;4.80;2.70;;;32.60;29.60;;;;;;2103179;68;20603;-76
2022/04/11 13:52:42;;;;;;;4.28;2.78;;;32.70;29.50;;;;;;2094953;68;20301;-77
2022/04/11 13:55:29;;;;;;;3.95;2.70;;;32.50;29.80;;;;;;2095035;68;20253;-76
2022/04/11 13:58:14;;;;;;;4.18;2.88;;;32.10;29.00;;;;;;2094533;68;20562;-76
2022/04/11 14:01:22;;;;;;;3.17;2.85;;;31.80;29.00;;;;;;2097995;68;20223;-78
2022/04/11 14:04:12;;;;;;;3.70;2.55;;;32.00;29.50;;;;;;2090504;68;20219;-76
2022/04/11 14:07:12;;;;;;;4.00;2.70;;;32.60;29.40;;;;;;2083376;68;20298;-82
2022/04/11 14:10:00;;;;;;;2.95;2.30;;;33.20;29.50;;;;;;2083141;68;20822;-76
2022/04/11 14:12:47;;;;;;;2.83;2.58;;;33.50;29.40;;;;;;2093453;68;20207;-76
2022/04/11 14:15:29;;;;;;;3.80;2.78;;;33.60;29.10;;;;;;2097969;68;20264;-75
2022/04/11 14:18:12;;;;;;;7.40;2.88;;;33.40;29.50;;;;;;2086446;68;20227;-77
2022/04/11 14:21:01;;;;;;;3.55;2.75;;;33.40;29.30;;;;;;2088602;68;20183;-77
2022/04/11 14:23:45;;;;;;;5.07;2.63;;;33.40;29.10;;;;;;2104648;67;20759;-75
2022/04/11 14:26:43;;;;;;;3.35;2.80;;;33.10;28.90;;;;;;2097001;68;20211;-76
2022/04/11 14:29:29;;;;;;;3.72;3.15;;;32.70;29.80;;;;;;2097420;67;20430;-76
2022/04/11 14:32:17;;;;;;;3.55;2.92;;;32.50;29.10;;;;;;2112666;67;20286;-76
2022/04/11 14:35:39;;;;;;;4.18;3.17;;;32.70;29.60;;;;;;2112766;67;20206;-78
2022/04/11 14:38:26;;;;;;;4.28;2.80;;;33.00;30.80;;;;;;2111179;67;20206;-76
2022/04/11 14:41:11;;;;;;;4.75;2.90;;;32.90;29.40;;;;;;2123322;67;20548;-76